PHBK METAR and TAF | Updated Today

PHBK METAR

Barking Sands Airport

Observation time: 33 min. ago

PHBK 061851Z AUTO 12004KT 10SM CLR 23/18 A3018 RMK AO2 SLP221 T02330178

Need help? Read our tutorial on how to read METARs or read the parsed version below.

Barking Sands Airport (PHBK) METAR

  • Weather conditions on Mon, 06 Feb 2023 18:51:00 +0000 (33 min. ago):
  • Present conditions: Dry
  • Clouds: Clear skies
  • Visibility: 16093 meters
  • Wind: 120 degrees at 4 knots
  • Temperature: 23 celsius
  • Dew point: 18 celsius
  • Pressure: 30.18 inHg
  • Remarks: AO2 SLP221 T02330178


Useful to know...

PHBK TAF

Barking Sands Airport

TAF not found.